Time;durP1;ratioP1;P1;durP2;ratioP2;P2;SDS_P1;SDS_P2;PMS_P1;PMS_P2;Temp;Humidity;BMP_temperature;BMP_pressure;BME280_temperature;BME280_humidity;BME280_pressure;Samples;Min_cycle;Max_cycle;Signal;HPM_P1;HPM_P2
2023/02/04 00:00:15;;;;;;;5.63;1.35;;;;;;;15.37;50.63;103034.16;5053371;28;20017;-66
2023/02/04 00:02:40;;;;;;;7.82;1.85;;;;;;;15.38;50.69;103032.31;5045094;28;20075;-66
2023/02/04 00:05:06;;;;;;;4.80;1.63;;;;;;;15.40;50.00;103033.06;5053683;28;20033;-67
2023/02/04 00:07:33;;;;;;;3.95;1.65;;;;;;;15.35;51.18;103030.69;5036661;28;20040;-66
2023/02/04 00:09:59;;;;;;;6.25;0.82;;;;;;;15.32;50.09;103033.63;5054448;28;20512;-67
2023/02/04 00:12:24;;;;;;;5.82;1.17;;;;;;;15.28;50.51;103034.78;5021425;28;20126;-67
2023/02/04 00:14:50;;;;;;;4.93;1.15;;;;;;;15.24;50.49;103033.28;5055400;28;20029;-67
2023/02/04 00:17:15;;;;;;;3.22;0.77;;;;;;;15.24;51.46;103038.69;5054054;28;20501;-67
2023/02/04 00:19:41;;;;;;;4.75;1.33;;;;;;;15.24;50.36;103041.38;5054091;28;20041;-67
2023/02/04 00:22:07;;;;;;;8.85;1.52;;;;;;;15.21;50.38;103036.19;5054421;28;20040;-67
2023/02/04 00:24:37;;;;;;;12.10;1.50;;;;;;;15.19;51.50;103040.81;5054298;28;20080;-66
2023/02/04 00:27:03;;;;;;;7.80;1.52;;;;;;;15.16;51.03;103036.47;5037696;28;20484;-67
2023/02/04 00:29:29;;;;;;;6.65;1.38;;;;;;;15.16;51.39;103027.50;5055279;28;20029;-67
2023/02/04 00:31:54;;;;;;;5.13;1.05;;;;;;;15.18;49.88;103044.50;5054847;28;20125;-67
2023/02/04 00:34:20;;;;;;;4.80;1.60;;;;;;;15.18;50.24;103040.91;5038180;28;20090;-67
2023/02/04 00:36:45;;;;;;;3.33;0.77;;;;;;;15.09;50.29;103034.31;5053973;28;20036;-67
2023/02/04 00:39:11;;;;;;;2.65;0.73;;;;;;;15.15;50.30;103039.31;5053716;28;21143;-67
2023/02/04 00:41:36;;;;;;;9.63;0.90;;;;;;;15.14;50.06;103037.56;5037044;28;20041;-67
2023/02/04 00:44:02;;;;;;;5.13;1.30;;;;;;;15.15;50.08;103033.91;5060864;28;20485;-66
2023/02/04 00:46:27;;;;;;;6.78;0.70;;;;;;;15.17;50.00;103026.56;5055049;28;20045;-67
2023/02/04 00:48:52;;;;;;;4.75;1.25;;;;;;;15.16;49.87;103041.00;5055685;28;20472;-67
2023/02/04 00:51:19;;;;;;;8.38;1.10;;;;;;;15.18;49.90;103031.00;5055964;28;20040;-67
2023/02/04 00:53:45;;;;;;;7.00;0.95;;;;;;;15.19;49.68;103035.41;5053957;28;20029;-67
2023/02/04 00:56:10;;;;;;;8.98;0.98;;;;;;;15.21;50.70;103033.50;5054658;28;20407;-67
2023/02/04 00:58:36;;;;;;;11.27;1.63;;;;;;;15.20;50.16;103037.16;5053484;28;20400;-66
2023/02/04 01:01:01;;;;;;;10.23;1.00;;;;;;;15.22;51.07;103045.13;5036899;28;20044;-66
2023/02/04 01:03:27;;;;;;;11.35;1.20;;;;;;;15.22;50.08;103037.91;5055079;28;20028;-67
2023/02/04 01:05:52;;;;;;;10.15;1.05;;;;;;;15.24;50.70;103037.81;5054644;28;20378;-67
2023/02/04 01:08:17;;;;;;;6.75;1.13;;;;;;;15.23;50.56;103042.34;5052919;28;20112;-67
2023/02/04 01:10:43;;;;;;;5.32;0.95;;;;;;;15.26;50.24;103047.53;5053084;28;20029;-67
2023/02/04 01:13:08;;;;;;;5.22;1.00;;;;;;;15.27;49.56;103049.25;5054265;28;20389;-67
2023/02/04 01:15:35;;;;;;;10.65;1.08;;;;;;;15.29;49.56;103052.72;5054085;28;20051;-67
2023/02/04 01:18:00;;;;;;;3.05;0.70;;;;;;;15.30;50.15;103059.84;5053797;28;20552;-66
2023/02/04 01:20:26;;;;;;;9.73;1.02;;;;;;;15.27;50.17;103051.94;5053634;28;20496;-67
2023/02/04 01:22:51;;;;;;;10.57;1.67;;;;;;;15.29;49.99;103050.03;5052908;28;20052;-67
2023/02/04 01:25:17;;;;;;;2.35;0.68;;;;;;;15.31;50.94;103053.47;5054305;28;20105;-67
2023/02/04 01:27:44;;;;;;;3.38;0.73;;;;;;;15.24;49.84;103038.69;5052687;28;20025;-67
2023/02/04 01:30:11;;;;;;;5.50;1.30;;;;;;;15.30;50.22;103049.03;5053885;28;20146;-67
2023/02/04 01:32:36;;;;;;;7.68;0.93;;;;;;;15.31;50.55;103050.78;5054203;28;20036;-67
2023/02/04 01:35:02;;;;;;;4.55;1.52;;;;;;;15.32;50.77;103052.50;5035946;28;20033;-67
2023/02/04 01:37:27;;;;;;;4.07;1.05;;;;;;;15.32;50.40;103051.66;5053971;28;20093;-67
2023/02/04 01:39:53;;;;;;;13.85;0.93;;;;;;;15.32;50.73;103052.50;5035904;28;20504;-68
2023/02/04 01:42:18;;;;;;;4.20;0.55;;;;;;;15.28;50.17;103045.59;5052684;28;20032;-67
2023/02/04 01:44:44;;;;;;;6.85;0.95;;;;;;;15.31;49.50;103066.09;5053048;28;20021;-67
2023/02/04 01:47:09;;;;;;;6.00;1.02;;;;;;;15.31;49.81;103072.38;5053235;28;20061;-67
2023/02/04 01:49:35;;;;;;;6.80;1.23;;;;;;;15.33;50.76;103064.16;5052308;28;20033;-67
2023/02/04 01:52:01;;;;;;;6.18;1.15;;;;;;;15.35;49.20;103063.13;5034704;28;20037;-67
2023/02/04 01:54:27;;;;;;;4.57;1.10;;;;;;;15.34;50.21;103072.16;5035936;28;20029;-68
2023/02/04 01:56:54;;;;;;;4.00;0.90;;;;;;;15.37;49.87;103071.09;5035834;28;20489;-67
2023/02/04 01:59:19;;;;;;;3.10;0.60;;;;;;;15.38;49.62;103079.06;5054113;28;20106;-67
2023/02/04 02:01:47;;;;;;;5.30;1.13;;;;;;;15.38;50.12;103073.69;5035507;28;20496;-67
2023/02/04 02:04:16;;;;;;;8.85;1.15;;;;;;;15.39;50.14;103070.00;5052265;28;20025;-68
2023/02/04 02:06:52;;;;;;;5.70;1.42;;;;;;;15.40;49.87;103068.19;5052133;28;20029;-67
2023/02/04 02:09:18;;;;;;;7.22;1.33;;;;;;;15.40;49.10;103081.69;5051846;28;20484;-67
2023/02/04 02:11:43;;;;;;;3.80;1.20;;;;;;;15.39;50.05;103072.72;5035700;28;20059;-68
2023/02/04 02:14:10;;;;;;;4.85;0.80;;;;;;;15.40;50.15;103082.56;5053109;28;20036;-67
2023/02/04 02:16:35;;;;;;;2.85;0.93;;;;;;;15.39;49.51;103078.13;5051949;28;20029;-67
2023/02/04 02:19:01;;;;;;;3.83;1.10;;;;;;;15.41;49.75;103078.88;5053226;28;20032;-67
2023/02/04 02:21:34;;;;;;;9.00;1.48;;;;;;;15.39;50.72;103080.81;5051650;28;20083;-67
2023/02/04 02:24:02;;;;;;;5.18;1.08;;;;;;;15.41;50.35;103086.97;5051752;28;20033;-67
2023/02/04 02:26:27;;;;;;;10.25;1.63;;;;;;;15.40;49.33;103087.09;5053439;28;20115;-67
2023/02/04 02:28:54;;;;;;;10.13;1.58;;;;;;;15.37;50.52;103077.38;5053047;28;20033;-67
2023/02/04 02:31:20;;;;;;;3.55;0.82;;;;;;;15.40;49.65;103087.97;5035222;28;20029;-67
2023/02/04 02:33:46;;;;;;;1.60;0.55;;;;;;;15.37;50.32;103085.47;5051776;28;20116;-68
2023/02/04 02:36:12;;;;;;;4.85;0.90;;;;;;;15.41;50.61;103089.66;5052856;28;20419;-67
2023/02/04 02:38:38;;;;;;;7.43;0.90;;;;;;;15.40;50.22;103089.78;5052054;28;20039;-67
2023/02/04 02:41:03;;;;;;;4.35;1.35;;;;;;;15.35;49.80;103083.84;5034853;28;20090;-67
2023/02/04 02:43:29;;;;;;;2.83;1.15;;;;;;;15.36;50.60;103086.44;5051903;28;20119;-67
2023/02/04 02:45:57;;;;;;;1.20;0.70;;;;;;;15.33;50.63;103081.22;5051333;28;20610;-67
2023/02/04 02:48:23;;;;;;;4.25;1.08;;;;;;;15.26;49.81;103069.13;5034870;28;20484;-67
2023/02/04 02:50:48;;;;;;;3.92;0.73;;;;;;;15.26;49.91;103081.75;5052146;28;20036;-67
2023/02/04 02:53:16;;;;;;;4.20;1.95;;;;;;;15.21;48.73;103082.09;5034085;28;20120;-67
2023/02/04 02:55:41;;;;;;;3.47;0.85;;;;;;;15.19;50.10;103094.81;5031574;28;20033;-67
2023/02/04 02:58:22;;;;;;;3.35;1.20;;;;;;;15.15;49.09;103090.59;5031762;28;20029;-67
2023/02/04 03:00:48;;;;;;;5.93;1.25;;;;;;;15.07;48.81;103091.09;5031465;28;20090;-67
2023/02/04 03:03:18;;;;;;;2.30;0.50;;;;;;;15.04;49.75;103098.53;5031694;28;20487;-67
2023/02/04 03:05:45;;;;;;;2.08;0.60;;;;;;;14.98;50.43;103104.34;5031972;28;20033;-67
2023/02/04 03:08:13;;;;;;;2.55;0.80;;;;;;;14.92;50.21;103107.44;5014915;28;20424;-67
2023/02/04 03:10:39;;;;;;;4.20;0.85;;;;;;;14.84;49.70;103105.25;5031443;28;20034;-67
2023/02/04 03:13:04;;;;;;;5.20;0.95;;;;;;;14.75;50.33;103110.38;5031491;28;20033;-67
2023/02/04 03:15:30;;;;;;;3.63;0.65;;;;;;;14.69;49.15;103108.09;5031483;28;20052;-67
2023/02/04 03:17:58;;;;;;;5.20;1.00;;;;;;;14.64;48.56;103115.63;5032702;28;20048;-68
2023/02/04 03:20:26;;;;;;;4.68;0.75;;;;;;;14.56;48.59;103117.00;5035514;28;20105;-68
2023/02/04 03:22:52;;;;;;;2.88;0.70;;;;;;;14.50;49.78;103133.56;5031171;28;20037;-67
2023/02/04 03:25:19;;;;;;;3.88;0.93;;;;;;;14.45;48.78;103135.69;5031950;28;20041;-67
2023/02/04 03:27:45;;;;;;;4.60;1.38;;;;;;;14.40;50.08;103137.81;5032959;28;20038;-67
2023/02/04 03:30:10;;;;;;;1.40;1.00;;;;;;;14.37;49.67;103147.94;5015083;28;20037;-67
2023/02/04 03:32:35;;;;;;;2.30;0.70;;;;;;;14.30;50.17;103142.00;5034147;28;20042;-67
2023/02/04 03:35:01;;;;;;;10.75;1.17;;;;;;;14.25;49.69;103149.53;5035530;28;20444;-67
2023/02/04 03:37:26;;;;;;;3.85;0.85;;;;;;;14.23;49.74;103154.16;5035300;28;20045;-67
2023/02/04 03:39:52;;;;;;;5.65;0.95;;;;;;;14.22;48.68;103155.09;5035191;28;20084;-67
2023/02/04 03:42:17;;;;;;;1.45;0.55;;;;;;;14.19;50.46;103152.59;5035265;28;20033;-66
2023/02/04 03:44:43;;;;;;;2.17;0.40;;;;;;;14.18;49.95;103158.94;5035195;28;20052;-66
2023/02/04 03:47:08;;;;;;;3.13;0.55;;;;;;;14.17;49.60;103167.13;5036058;28;20057;-67
2023/02/04 03:49:34;;;;;;;3.25;1.17;;;;;;;14.14;49.73;103162.81;5034987;28;20037;-66
2023/02/04 03:52:01;;;;;;;4.93;0.88;;;;;;;14.15;50.49;103169.94;5036167;28;20120;-67
2023/02/04 03:54:27;;;;;;;6.65;1.05;;;;;;;14.10;49.65;103155.84;5034702;28;20111;-66
2023/02/04 03:56:52;;;;;;;6.40;1.13;;;;;;;14.16;48.97;103166.25;5034891;28;20108;-66
2023/02/04 03:59:18;;;;;;;4.20;0.73;;;;;;;14.15;50.64;103160.97;5034962;28;20103;-66
2023/02/04 04:01:43;;;;;;;8.10;1.00;;;;;;;14.17;50.37;103170.69;5018457;28;20135;-66
2023/02/04 04:04:09;;;;;;;3.05;1.38;;;;;;;14.20;49.20;103162.44;5036359;28;20033;-66
2023/02/04 04:06:34;;;;;;;3.97;1.65;;;;;;;14.20;50.21;103159.72;5018086;28;20503;-66
2023/02/04 04:08:59;;;;;;;4.07;1.17;;;;;;;14.24;50.29;103163.94;5018045;28;20033;-66
2023/02/04 04:11:25;;;;;;;4.47;0.85;;;;;;;14.29;49.27;103171.78;5018494;28;20028;-66
2023/02/04 04:13:50;;;;;;;9.30;1.10;;;;;;;14.32;49.23;103183.25;5034960;28;20539;-67
2023/02/04 04:16:16;;;;;;;7.20;1.13;;;;;;;14.35;50.81;103180.34;5019023;28;20120;-68
2023/02/04 04:18:41;;;;;;;6.40;0.80;;;;;;;14.37;50.47;103175.75;5037298;28;20026;-67
2023/02/04 04:21:07;;;;;;;6.18;1.15;;;;;;;14.40;50.01;103178.28;5035870;28;20485;-66
2023/02/04 04:23:32;;;;;;;3.40;0.80;;;;;;;14.43;50.76;103177.22;5018133;28;20523;-67
2023/02/04 04:25:58;;;;;;;6.78;1.73;;;;;;;14.47;50.79;103185.00;5017549;28;20045;-67
2023/02/04 04:28:23;;;;;;;5.95;1.20;;;;;;;14.50;50.11;103181.22;5034102;28;20037;-66
2023/02/04 04:30:48;;;;;;;5.85;1.23;;;;;;;14.52;50.38;103172.06;5035397;28;20030;-66
2023/02/04 04:33:14;;;;;;;6.63;1.05;;;;;;;14.54;50.25;103167.44;5017549;28;20029;-67
2023/02/04 04:35:39;;;;;;;2.03;0.95;;;;;;;14.58;50.05;103169.00;5035856;28;20029;-67
2023/02/04 04:38:05;;;;;;;6.18;0.90;;;;;;;14.62;49.52;103166.09;5018571;28;20034;-67
2023/02/04 04:40:30;;;;;;;7.32;1.67;;;;;;;14.63;50.43;103165.16;5035465;28;20524;-66
2023/02/04 04:42:56;;;;;;;9.50;1.23;;;;;;;14.65;50.91;103168.59;5033619;28;20052;-67
2023/02/04 04:45:21;;;;;;;9.57;2.10;;;;;;;14.66;50.49;103167.63;5029189;28;20040;-67
2023/02/04 04:47:47;;;;;;;7.45;2.42;;;;;;;14.65;50.24;103158.69;5017804;28;20401;-66
2023/02/04 04:50:12;;;;;;;13.55;2.70;;;;;;;14.66;50.48;103156.84;5033663;28;20025;-67
2023/02/04 04:52:38;;;;;;;8.15;2.05;;;;;;;14.70;49.37;103171.88;5034896;28;20037;-67
2023/02/04 04:55:04;;;;;;;8.05;1.80;;;;;;;14.66;50.59;103163.09;5016944;28;20041;-66
2023/02/04 04:57:30;;;;;;;6.93;2.00;;;;;;;14.70;50.93;103172.75;5033644;28;20045;-67
2023/02/04 04:59:55;;;;;;;17.02;3.58;;;;;;;14.71;50.32;103170.91;5007971;28;20063;-67
2023/02/04 05:02:23;;;;;;;9.60;2.83;;;;;;;14.68;50.99;103172.00;5034095;28;20025;-66
2023/02/04 05:04:48;;;;;;;11.55;2.47;;;;;;;14.72;49.98;103183.44;5034538;28;20037;-67
2023/02/04 05:07:13;;;;;;;8.10;2.35;;;;;;;14.70;49.28;103177.28;5034570;28;20048;-66
2023/02/04 05:09:39;;;;;;;8.23;3.33;;;;;;;14.71;50.69;103174.50;5034865;28;20030;-67
2023/02/04 05:12:04;;;;;;;10.43;2.65;;;;;;;14.71;50.92;103179.88;5033030;28;20080;-66
2023/02/04 05:14:30;;;;;;;11.40;2.95;;;;;;;14.72;50.28;103175.34;5034180;28;20493;-67
2023/02/04 05:16:55;;;;;;;13.98;3.83;;;;;;;14.69;50.98;103170.13;5033248;28;20045;-66
2023/02/04 05:19:21;;;;;;;10.35;2.67;;;;;;;14.66;49.81;103176.59;5033189;28;20060;-67
2023/02/04 05:21:46;;;;;;;12.80;3.60;;;;;;;14.67;50.57;103188.25;5018830;28;20029;-68
2023/02/04 05:24:12;;;;;;;20.42;3.70;;;;;;;14.66;49.80;103191.91;5035003;28;20100;-67
2023/02/04 05:26:38;;;;;;;14.93;3.88;;;;;;;14.65;49.52;103191.06;5034536;28;20398;-66
2023/02/04 05:29:04;;;;;;;25.45;3.72;;;;;;;14.64;50.33;103193.84;5033209;28;20120;-66
2023/02/04 05:31:30;;;;;;;10.52;2.90;;;;;;;14.66;50.35;103208.09;5016326;28;20551;-67
2023/02/04 05:33:55;;;;;;;13.00;3.55;;;;;;;14.66;49.91;103197.31;5034170;28;20037;-67
2023/02/04 05:36:21;;;;;;;12.30;3.95;;;;;;;14.65;50.99;103196.47;5032940;28;20453;-66
2023/02/04 05:38:46;;;;;;;13.48;2.90;;;;;;;14.67;51.44;103201.75;5016837;28;20040;-66
2023/02/04 05:41:12;;;;;;;15.25;4.13;;;;;;;14.66;50.58;103203.56;5033989;28;20029;-66
2023/02/04 05:43:38;;;;;;;18.75;4.30;;;;;;;14.67;49.84;103202.63;5016521;28;20037;-67
2023/02/04 05:46:05;;;;;;;13.32;4.70;;;;;;;14.67;51.35;103196.34;5032404;28;20057;-67
2023/02/04 05:48:30;;;;;;;19.63;4.97;;;;;;;14.68;50.34;103206.19;5032768;28;20495;-67
2023/02/04 05:50:56;;;;;;;11.52;3.28;;;;;;;14.68;50.76;103212.44;5015884;28;20030;-67
2023/02/04 05:53:22;;;;;;;17.52;4.25;;;;;;;14.65;50.89;103207.25;5017037;28;20496;-67
2023/02/04 05:55:48;;;;;;;13.07;3.55;;;;;;;14.68;50.27;103206.19;5032160;28;20033;-67
2023/02/04 05:58:13;;;;;;;14.23;3.95;;;;;;;14.67;50.97;103204.44;5016281;28;20032;-66
2023/02/04 06:00:39;;;;;;;9.93;3.75;;;;;;;14.69;49.89;103211.47;4999494;28;20033;-67
2023/02/04 06:03:04;;;;;;;18.38;4.45;;;;;;;14.69;49.90;103216.00;5032258;28;20029;-67
2023/02/04 06:05:31;;;;;;;12.38;3.08;;;;;;;14.65;50.59;103218.03;5016491;28;20033;-67
2023/02/04 06:07:57;;;;;;;17.00;4.28;;;;;;;14.67;50.67;103226.91;5033812;28;20033;-66
2023/02/04 06:10:22;;;;;;;22.63;4.93;;;;;;;14.68;49.78;103227.78;5016186;28;20128;-67
2023/02/04 06:12:48;;;;;;;12.93;3.20;;;;;;;14.67;49.81;103226.03;5033886;28;20041;-67
2023/02/04 06:15:13;;;;;;;15.90;3.60;;;;;;;14.65;49.43;103223.44;4999491;28;20374;-67
2023/02/04 06:17:39;;;;;;;11.75;4.43;;;;;;;14.66;49.70;103237.75;5033258;28;20030;-67
2023/02/04 06:20:05;;;;;;;15.55;3.38;;;;;;;14.63;49.54;103230.72;5032930;28;20033;-66
2023/02/04 06:22:32;;;;;;;11.10;3.15;;;;;;;14.65;50.01;103236.94;5031363;28;20091;-66
2023/02/04 06:24:58;;;;;;;16.77;3.78;;;;;;;14.64;50.71;103237.00;5033598;28;20409;-71
2023/02/04 06:27:23;;;;;;;12.75;3.45;;;;;;;14.64;50.42;103234.31;5032506;28;20025;-67
2023/02/04 06:29:50;;;;;;;14.05;4.70;;;;;;;14.63;50.89;103241.53;5016464;28;20028;-67
2023/02/04 06:32:16;;;;;;;11.00;3.40;;;;;;;14.62;50.93;103244.34;5033845;28;20033;-68
2023/02/04 06:34:42;;;;;;;10.10;3.05;;;;;;;14.59;51.26;103250.78;5032532;28;20025;-66
2023/02/04 06:37:07;;;;;;;18.60;5.32;;;;;;;14.60;50.97;103248.97;5033281;28;20029;-67
2023/02/04 06:39:33;;;;;;;16.15;3.97;;;;;;;14.55;49.55;103254.63;5049571;28;20096;-67
2023/02/04 06:41:59;;;;;;;10.10;3.45;;;;;;;14.48;49.99;103246.06;5057156;28;20561;-67
2023/02/04 06:44:24;;;;;;;12.32;4.07;;;;;;;14.51;50.93;103264.75;5041232;28;20115;-67
2023/02/04 06:46:50;;;;;;;13.77;4.18;;;;;;;14.50;49.89;103270.22;5055966;28;20543;-67
2023/02/04 06:49:15;;;;;;;13.25;3.20;;;;;;;14.45;50.75;103257.03;5056782;28;20036;-67
2023/02/04 06:51:40;;;;;;;10.75;4.22;;;;;;;14.48;49.64;103269.47;5054914;28;20063;-67
2023/02/04 06:54:06;;;;;;;14.98;4.22;;;;;;;14.45;49.52;103275.94;5056195;28;20025;-67
2023/02/04 06:56:31;;;;;;;15.18;4.50;;;;;;;14.43;49.98;103272.44;5056500;28;20388;-69
2023/02/04 06:58:57;;;;;;;16.45;5.13;;;;;;;14.39;49.93;103276.28;5079379;28;20044;-72
2023/02/04 07:01:22;;;;;;;14.40;3.95;;;;;;;14.37;49.18;103277.34;5077417;28;20492;-69
2023/02/04 07:03:47;;;;;;;12.60;3.55;;;;;;;14.31;50.47;103275.00;5079274;28;20054;-67
2023/02/04 07:06:13;;;;;;;7.85;4.07;;;;;;;14.31;49.36;103286.66;5051939;28;20061;-68
2023/02/04 07:08:39;;;;;;;10.68;4.35;;;;;;;14.30;50.82;103297.50;5059579;28;20550;-72
2023/02/04 07:11:04;;;;;;;10.68;3.10;;;;;;;14.28;49.45;103289.53;5042650;28;20052;-65
2023/02/04 07:13:30;;;;;;;21.25;4.47;;;;;;;14.25;49.43;103289.72;5041469;28;20471;-70
2023/02/04 07:15:55;;;;;;;18.70;3.95;;;;;;;14.25;50.66;103284.31;5057976;28;20036;-68
2023/02/04 07:18:20;;;;;;;16.02;4.22;;;;;;;14.29;49.32;103295.78;5046782;28;20033;-65
2023/02/04 07:20:46;;;;;;;11.70;4.35;;;;;;;14.30;50.28;103298.38;5079747;28;20392;-65
2023/02/04 07:23:11;;;;;;;11.10;3.35;;;;;;;14.31;50.71;103300.13;5060207;28;20119;-68
2023/02/04 07:25:37;;;;;;;10.95;4.03;;;;;;;14.31;49.74;103294.75;5061692;28;20024;-69
2023/02/04 07:28:04;;;;;;;12.77;4.80;;;;;;;14.32;50.97;103301.03;5044667;28;20420;-70
2023/02/04 07:30:30;;;;;;;17.95;4.38;;;;;;;14.35;49.53;103307.09;5028580;28;20558;-68
2023/02/04 07:32:56;;;;;;;22.38;4.25;;;;;;;14.37;50.37;103302.50;5077872;28;20039;-66
2023/02/04 07:35:21;;;;;;;16.42;4.57;;;;;;;14.34;50.47;103305.38;5077047;28;20377;-67
2023/02/04 07:37:47;;;;;;;12.48;4.30;;;;;;;14.40;50.73;103310.41;5078254;28;20108;-69
2023/02/04 07:40:12;;;;;;;17.90;4.18;;;;;;;14.41;50.86;103309.41;5045999;28;20412;-69
2023/02/04 07:42:38;;;;;;;12.73;3.97;;;;;;;14.41;49.82;103309.41;5061276;28;20507;-68
2023/02/04 07:45:03;;;;;;;14.85;5.18;;;;;;;14.43;49.67;103315.56;5074905;28;20539;-69
2023/02/04 07:47:29;;;;;;;20.80;4.45;;;;;;;14.47;50.88;103327.06;5076521;28;20055;-68
2023/02/04 07:49:57;;;;;;;17.25;4.57;;;;;;;14.49;49.54;103320.59;5077401;28;20028;-69
2023/02/04 07:52:23;;;;;;;11.32;3.97;;;;;;;14.51;50.52;103329.50;5076819;28;20028;-68
2023/02/04 07:54:49;;;;;;;13.27;3.75;;;;;;;14.51;50.95;103318.72;5076002;28;20038;-68
2023/02/04 07:57:15;;;;;;;11.48;4.32;;;;;;;14.52;49.79;103314.16;5058161;28;20435;-68
2023/02/04 07:59:40;;;;;;;17.80;4.43;;;;;;;14.55;50.17;103331.03;5075961;28;20033;-68
2023/02/04 08:02:06;;;;;;;11.77;3.58;;;;;;;14.51;50.69;103324.09;5058685;28;20044;-68
2023/02/04 08:04:31;;;;;;;12.35;3.75;;;;;;;14.57;50.85;103334.47;5078777;28;20040;-67
2023/02/04 08:06:57;;;;;;;10.60;3.10;;;;;;;14.60;49.99;103332.59;5061529;28;20048;-67
2023/02/04 08:09:23;;;;;;;14.30;3.80;;;;;;;14.63;51.07;103341.34;5059285;28;20029;-68
2023/02/04 08:11:48;;;;;;;8.13;3.90;;;;;;;14.67;50.82;103347.41;5074929;28;20507;-68
2023/02/04 08:14:13;;;;;;;13.10;4.68;;;;;;;14.70;50.06;103348.13;5074371;28;20047;-68
2023/02/04 08:16:39;;;;;;;9.65;4.05;;;;;;;14.73;49.55;103349.75;5075697;28;20036;-67
2023/02/04 08:19:04;;;;;;;9.88;3.17;;;;;;;14.75;50.86;103353.22;5057597;28;20033;-67
2023/02/04 08:21:30;;;;;;;16.33;3.83;;;;;;;14.76;49.83;103350.44;5060088;28;20024;-68
2023/02/04 08:23:55;;;;;;;13.13;3.92;;;;;;;14.82;49.46;103360.84;5057478;28;20111;-68
2023/02/04 08:26:20;;;;;;;11.15;4.15;;;;;;;14.86;50.10;103356.13;5059051;28;20503;-69
2023/02/04 08:28:46;;;;;;;13.80;4.45;;;;;;;14.88;50.01;103346.97;5076387;28;20037;-67
2023/02/04 08:31:11;;;;;;;13.57;4.95;;;;;;;14.93;49.44;103358.38;5075288;28;20024;-68
2023/02/04 08:33:37;;;;;;;10.40;4.13;;;;;;;14.96;50.48;103358.13;5074149;28;20025;-68
2023/02/04 08:36:05;;;;;;;10.45;4.25;;;;;;;14.97;49.60;103353.63;5073812;28;20025;-68
2023/02/04 08:38:30;;;;;;;13.73;3.80;;;;;;;15.03;49.36;103364.91;5057261;28;20170;-69
2023/02/04 08:40:56;;;;;;;13.20;4.38;;;;;;;15.07;50.12;103371.84;5056934;28;20040;-69
2023/02/04 08:43:21;;;;;;;11.50;3.88;;;;;;;15.11;49.46;103368.00;5073560;28;20123;-69
2023/02/04 08:45:46;;;;;;;12.45;3.85;;;;;;;15.18;49.30;103363.09;5074545;28;20131;-69
2023/02/04 08:48:12;;;;;;;10.52;4.13;;;;;;;15.25;49.11;103368.94;5073334;28;20020;-69
2023/02/04 08:50:37;;;;;;;8.68;3.35;;;;;;;15.28;50.37;103357.94;5057198;28;20503;-67
2023/02/04 08:53:03;;;;;;;10.07;3.63;;;;;;;15.35;49.21;103371.00;5074650;28;20066;-69
2023/02/04 08:55:28;;;;;;;11.40;3.58;;;;;;;15.37;48.99;103371.75;5074547;28;20024;-69
2023/02/04 08:57:53;;;;;;;12.02;3.95;;;;;;;15.41;49.85;103383.25;5073525;28;20037;-69
2023/02/04 09:00:19;;;;;;;11.75;4.35;;;;;;;15.34;48.95;103363.84;5073414;28;20082;-68
2023/02/04 09:02:44;;;;;;;16.83;4.15;;;;;;;15.48;49.06;103381.91;5073700;28;20456;-69
2023/02/04 09:05:10;;;;;;;14.82;4.95;;;;;;;15.52;50.39;103383.44;5074305;28;20048;-69
2023/02/04 09:07:35;;;;;;;15.43;5.07;;;;;;;15.56;49.73;103387.66;5073228;28;20029;-69
2023/02/04 09:10:01;;;;;;;13.05;3.97;;;;;;;15.58;49.39;103372.22;5056721;28;20063;-69
2023/02/04 09:12:26;;;;;;;8.68;3.55;;;;;;;15.63;49.09;103387.16;5073028;28;20059;-68
2023/02/04 09:14:51;;;;;;;12.07;3.92;;;;;;;15.68;50.01;103382.34;5074372;28;20369;-68
2023/02/04 09:17:17;;;;;;;14.43;4.70;;;;;;;15.77;50.22;103385.44;5056969;28;20078;-68
2023/02/04 09:19:43;;;;;;;8.80;3.70;;;;;;;15.85;49.75;103385.78;5056295;28;20028;-69
2023/02/04 09:22:08;;;;;;;17.23;3.53;;;;;;;15.90;48.89;103389.06;5074341;28;20087;-69
2023/02/04 09:24:34;;;;;;;13.43;3.65;;;;;;;15.91;49.85;103375.44;5074021;28;20111;-69
2023/02/04 09:26:59;;;;;;;11.63;4.03;;;;;;;16.05;49.38;103382.66;5073906;28;20104;-69
2023/02/04 09:29:25;;;;;;;16.63;4.78;;;;;;;16.14;48.59;103382.00;5074338;28;20032;-69
2023/02/04 09:31:50;;;;;;;17.67;4.43;;;;;;;16.19;48.87;103382.59;5074093;28;20036;-69
2023/02/04 09:34:15;;;;;;;17.42;4.53;;;;;;;16.27;48.72;103377.53;5055963;28;20105;-69
2023/02/04 09:36:41;;;;;;;9.55;4.07;;;;;;;16.33;48.45;103379.81;5056079;28;20040;-69
2023/02/04 09:39:08;;;;;;;14.18;4.13;;;;;;;16.37;49.85;103378.63;5073599;28;20075;-68
2023/02/04 09:41:35;;;;;;;12.60;4.20;;;;;;;16.43;48.55;103377.34;5073132;28;20025;-68
2023/02/04 09:44:02;;;;;;;12.93;4.00;;;;;;;16.47;48.81;103368.91;5055999;28;20052;-69
2023/02/04 09:46:28;;;;;;;23.25;4.68;;;;;;;16.53;49.41;103371.22;5072337;28;20055;-69
2023/02/04 09:48:54;;;;;;;16.30;4.15;;;;;;;16.61;48.75;103381.53;5072310;28;20074;-68
2023/02/04 09:51:22;;;;;;;17.95;4.35;;;;;;;16.69;48.71;103390.88;5038988;28;20115;-69
2023/02/04 09:53:49;;;;;;;10.10;4.10;;;;;;;16.74;49.01;103377.88;5073909;28;20030;-69
2023/02/04 09:56:14;;;;;;;11.73;4.38;;;;;;;16.94;48.37;103394.56;5073430;28;20490;-69
2023/02/04 09:58:40;;;;;;;17.98;4.90;;;;;;;17.07;48.71;103396.28;5073411;28;20033;-68
2023/02/04 10:01:15;;;;;;;11.00;3.75;;;;;;;17.15;48.18;103404.75;5073293;28;20036;-68
2023/02/04 10:03:45;;;;;;;12.55;4.60;;;;;;;17.26;48.52;103406.69;5072130;28;20108;-69
2023/02/04 10:06:15;;;;;;;15.55;5.45;;;;;;;17.37;48.22;103410.34;5055960;28;20033;-69
2023/02/04 10:08:41;;;;;;;16.85;5.35;;;;;;;17.45;49.20;103407.09;5055684;28;20083;-69
2023/02/04 10:11:08;;;;;;;14.52;4.53;;;;;;;17.53;49.09;103403.84;5072091;28;20048;-69
2023/02/04 10:13:38;;;;;;;13.98;4.38;;;;;;;17.65;48.89;103411.09;5073215;28;20119;-69
2023/02/04 10:16:13;;;;;;;9.93;4.60;;;;;;;17.75;48.27;103409.47;5071784;28;20087;-69
2023/02/04 10:18:39;;;;;;;12.63;4.72;;;;;;;17.80;48.49;103407.28;5071897;28;20028;-69
2023/02/04 10:21:19;;;;;;;19.83;5.47;;;;;;;17.77;48.21;103402.94;5055508;28;20016;-70
2023/02/04 10:23:47;;;;;;;15.65;5.47;;;;;;;17.73;48.89;103416.81;5055788;28;20039;-69
2023/02/04 10:26:14;;;;;;;12.45;4.03;;;;;;;17.72;48.77;103415.97;5073027;28;20036;-68
2023/02/04 10:28:39;;;;;;;12.93;5.78;;;;;;;17.76;48.29;103417.47;5055361;28;20139;-69
2023/02/04 10:31:07;;;;;;;14.65;4.85;;;;;;;17.76;48.45;103420.19;5072814;28;20559;-69
2023/02/04 10:33:34;;;;;;;16.55;4.85;;;;;;;17.76;47.76;103420.19;5072133;28;20028;-69
2023/02/04 10:36:00;;;;;;;19.13;4.53;;;;;;;17.80;47.54;103424.41;5072934;28;20025;-69
2023/02/04 10:38:25;;;;;;;15.35;5.50;;;;;;;17.79;48.38;103422.66;5073371;28;20025;-69
2023/02/04 10:41:04;;;;;;;18.83;4.40;;;;;;;17.82;47.38;103419.75;5054524;28;20028;-69
2023/02/04 10:43:30;;;;;;;14.68;4.65;;;;;;;17.88;48.37;103419.28;5038357;28;20090;-69
2023/02/04 10:46:02;;;;;;;17.80;4.68;;;;;;;17.94;48.11;103416.13;5054914;28;20036;-69
2023/02/04 10:48:29;;;;;;;17.10;4.50;;;;;;;18.00;47.51;103415.69;5054719;28;20098;-69
2023/02/04 10:50:55;;;;;;;21.88;5.20;;;;;;;18.08;47.67;103415.09;5054645;28;20043;-69
2023/02/04 10:56:17;;;;;;;14.30;5.00;;;;;;;18.94;46.36;103408.44;5057608;28;20099;-68
2023/02/04 10:58:43;;;;;;;13.98;4.72;;;;;;;18.85;47.06;103401.00;5054890;28;20033;-69
2023/02/04 11:01:10;;;;;;;18.55;5.28;;;;;;;18.86;46.81;103405.47;5054946;28;20060;-69
2023/02/04 11:03:37;;;;;;;14.63;4.72;;;;;;;18.86;46.64;103405.47;5070986;28;20032;-69
2023/02/04 11:06:10;;;;;;;14.20;5.25;;;;;;;18.79;47.39;103404.19;5054626;28;20562;-69
2023/02/04 11:08:36;;;;;;;22.58;5.45;;;;;;;18.78;47.31;103412.47;5073112;28;20391;-69
2023/02/04 11:11:07;;;;;;;13.38;4.93;;;;;;;18.69;46.87;103413.19;5038539;28;20032;-69
2023/02/04 11:13:43;;;;;;;15.13;4.90;;;;;;;18.65;47.45;103417.13;5054843;28;20396;-69
2023/02/04 11:16:17;;;;;;;13.40;3.83;;;;;;;18.63;47.20;103419.06;5072641;28;20083;-69
2023/02/04 11:18:50;;;;;;;20.73;4.30;;;;;;;18.64;46.90;103412.66;5054826;28;20036;-69